Time;durP1;ratioP1;P1;durP2;ratioP2;P2;SDS_P1;SDS_P2;PMS_P1;PMS_P2;Temp;Humidity;BMP_temperature;BMP_pressure;BME280_temperature;BME280_humidity;BME280_pressure;Samples;Min_cycle;Max_cycle;Signal;HPM_P1;HPM_P2
2022/03/23 00:02:05;;;;;;;68.85;35.15;;;7.10;99.90;;;;;;5084363;28;20075;-69
2022/03/23 00:04:31;;;;;;;73.18;35.88;;;7.10;99.90;;;;;;5079172;28;20465;-69
2022/03/23 00:06:59;;;;;;;72.72;36.72;;;7.10;99.90;;;;;;5071238;28;20044;-69
2022/03/23 00:09:26;;;;;;;75.95;39.10;;;7.10;99.90;;;;;;5059897;28;20051;-71
2022/03/23 00:11:52;;;;;;;67.15;33.90;;;7.10;99.90;;;;;;5058114;28;20401;-69
2022/03/23 00:14:18;;;;;;;81.88;39.55;;;7.00;99.90;;;;;;5092714;28;20049;-69
2022/03/23 00:16:44;;;;;;;74.70;36.53;;;7.00;99.90;;;;;;5057374;28;20123;-70
2022/03/23 00:19:10;;;;;;;61.75;32.58;;;7.00;99.90;;;;;;5048856;28;20129;-70
2022/03/23 00:21:38;;;;;;;73.90;35.47;;;6.90;99.90;;;;;;5085542;28;20457;-69
2022/03/23 00:24:05;;;;;;;77.43;37.20;;;6.90;99.90;;;;;;5093241;28;20040;-69
2022/03/23 00:26:31;;;;;;;70.50;34.45;;;6.90;99.90;;;;;;5092961;28;20036;-69
2022/03/23 00:28:57;;;;;;;70.50;35.28;;;6.90;99.90;;;;;;5072273;28;20051;-69
2022/03/23 00:31:23;;;;;;;75.70;36.15;;;6.90;99.90;;;;;;5075315;28;20044;-69
2022/03/23 00:33:50;;;;;;;72.50;36.83;;;6.90;99.90;;;;;;5074071;28;20052;-69
2022/03/23 00:36:17;;;;;;;66.78;34.13;;;6.90;99.90;;;;;;5087131;28;20102;-69
2022/03/23 00:38:43;;;;;;;74.53;36.42;;;6.70;99.90;;;;;;5062198;28;20055;-71
2022/03/23 00:41:10;;;;;;;68.47;33.72;;;6.70;99.90;;;;;;5075543;28;20084;-71
2022/03/23 00:43:36;;;;;;;67.57;33.10;;;6.70;99.90;;;;;;5058832;28;20039;-69
2022/03/23 00:46:02;;;;;;;72.07;34.95;;;6.60;99.90;;;;;;5092632;28;20556;-68
2022/03/23 00:48:28;;;;;;;70.90;34.58;;;6.60;99.90;;;;;;5058066;28;20054;-70
2022/03/23 00:50:54;;;;;;;75.45;35.80;;;6.50;99.90;;;;;;5092474;28;20031;-69
2022/03/23 00:53:20;;;;;;;67.78;34.13;;;6.50;99.90;;;;;;5078761;28;20054;-69
2022/03/23 00:55:46;;;;;;;66.93;33.55;;;6.40;99.90;;;;;;5092385;28;20122;-69
2022/03/23 00:58:12;;;;;;;65.07;32.30;;;6.40;99.90;;;;;;5055850;28;20535;-71
2022/03/23 01:00:41;;;;;;;67.85;33.45;;;6.30;99.90;;;;;;5051948;28;20112;-69
2022/03/23 01:03:07;;;;;;;66.47;32.92;;;6.30;99.90;;;;;;5056606;28;20048;-70
2022/03/23 01:05:33;;;;;;;61.58;31.35;;;6.20;99.90;;;;;;5093335;28;20758;-69
2022/03/23 01:07:59;;;;;;;61.28;32.03;;;6.20;99.90;;;;;;5068298;28;20090;-69
2022/03/23 01:10:25;;;;;;;66.97;33.33;;;6.10;99.90;;;;;;5079554;28;20384;-70
2022/03/23 01:12:53;;;;;;;61.65;32.45;;;6.10;99.90;;;;;;5076035;28;20052;-70
2022/03/23 01:15:20;;;;;;;68.60;33.63;;;6.10;99.90;;;;;;5091530;28;20508;-70
2022/03/23 01:17:46;;;;;;;71.95;35.35;;;6.10;99.90;;;;;;5039299;28;20113;-69
2022/03/23 01:20:14;;;;;;;65.28;33.92;;;6.00;99.90;;;;;;5047585;28;20558;-71
2022/03/23 01:22:43;;;;;;;63.42;32.47;;;6.00;99.90;;;;;;5084891;28;20120;-69
2022/03/23 01:25:09;;;;;;;68.53;33.85;;;6.00;99.90;;;;;;5064215;28;20050;-69
2022/03/23 01:27:36;;;;;;;68.38;34.35;;;6.00;99.90;;;;;;5056171;28;20538;-69
2022/03/23 01:30:08;;;;;;;68.25;35.35;;;6.00;99.90;;;;;;5064664;28;20156;-68
2022/03/23 01:32:34;;;;;;;63.40;32.05;;;5.90;99.90;;;;;;5056881;28;20036;-69
2022/03/23 01:35:01;;;;;;;58.55;29.00;;;5.90;99.90;;;;;;5058394;28;20531;-69
2022/03/23 01:37:27;;;;;;;69.20;36.10;;;5.80;99.90;;;;;;5074024;28;20040;-68
2022/03/23 01:39:53;;;;;;;69.57;33.88;;;5.80;99.90;;;;;;5084278;28;20424;-69
2022/03/23 01:42:19;;;;;;;69.75;35.22;;;5.80;99.90;;;;;;5067438;28;20040;-69
2022/03/23 01:44:45;;;;;;;56.42;28.75;;;5.70;99.90;;;;;;5061490;28;20085;-69
2022/03/23 01:47:16;;;;;;;63.42;31.58;;;5.70;99.90;;;;;;5075840;28;20048;-69
2022/03/23 01:49:55;;;;;;;58.63;29.88;;;5.70;99.90;;;;;;5046457;28;20044;-69
2022/03/23 01:52:24;;;;;;;58.38;30.13;;;5.60;99.90;;;;;;5054610;28;20043;-69
2022/03/23 01:54:51;;;;;;;70.00;34.85;;;5.50;99.90;;;;;;5091767;28;20040;-69
2022/03/23 01:57:18;;;;;;;63.92;31.52;;;5.50;99.90;;;;;;5073101;28;20464;-68
2022/03/23 01:59:45;;;;;;;70.97;33.70;;;5.50;99.90;;;;;;5073628;28;20044;-69
2022/03/23 02:02:11;;;;;;;68.00;34.05;;;5.50;99.90;;;;;;5040819;28;20119;-69
2022/03/23 02:04:38;;;;;;;73.63;35.53;;;5.50;99.90;;;;;;5090149;28;20480;-70
2022/03/23 02:07:04;;;;;;;69.65;34.15;;;5.50;99.90;;;;;;5073794;28;20040;-69
2022/03/23 02:09:31;;;;;;;68.18;32.72;;;5.50;99.90;;;;;;5050247;28;20128;-69
2022/03/23 02:11:58;;;;;;;70.45;33.58;;;5.40;99.90;;;;;;5070407;28;20481;-70
2022/03/23 02:14:24;;;;;;;65.97;33.42;;;5.40;99.90;;;;;;5065174;28;20047;-69
2022/03/23 02:16:51;;;;;;;62.88;32.47;;;5.30;99.90;;;;;;5058780;28;20508;-69
2022/03/23 02:19:18;;;;;;;65.80;31.77;;;5.30;99.90;;;;;;5053861;28;20036;-69
2022/03/23 02:21:50;;;;;;;64.88;32.58;;;5.30;99.90;;;;;;5044446;28;20078;-69
2022/03/23 02:24:16;;;;;;;62.35;31.20;;;5.30;99.90;;;;;;5076387;28;20055;-69
2022/03/23 02:26:43;;;;;;;67.47;32.65;;;5.30;99.90;;;;;;5073729;28;20055;-69
2022/03/23 02:29:10;;;;;;;67.47;32.97;;;5.20;99.90;;;;;;5056621;28;20040;-69
2022/03/23 02:31:36;;;;;;;72.53;36.03;;;5.60;99.90;;;;;;5047217;28;20080;-70
2022/03/23 02:34:03;;;;;;;69.85;34.15;;;5.20;99.90;;;;;;5069666;28;20052;-69
2022/03/23 02:36:30;;;;;;;61.03;29.38;;;5.20;99.90;;;;;;5090846;28;20502;-68
2022/03/23 02:38:56;;;;;;;72.28;34.83;;;5.20;99.90;;;;;;5057091;28;20063;-69
2022/03/23 02:41:22;;;;;;;76.97;36.08;;;5.20;99.90;;;;;;5068816;28;20469;-69
2022/03/23 02:43:48;;;;;;;70.00;32.78;;;5.20;99.90;;;;;;5061645;28;20036;-68
2022/03/23 02:46:16;;;;;;;63.15;31.45;;;5.10;99.90;;;;;;5092757;28;20050;-70
2022/03/23 02:48:43;;;;;;;71.68;34.72;;;5.10;99.90;;;;;;5049230;28;20039;-68
2022/03/23 02:51:09;;;;;;;65.10;33.25;;;5.10;99.90;;;;;;5077147;28;20034;-69
2022/03/23 03:02:32;;;;;;;71.65;33.85;;;5.00;99.90;;;;;;5092261;28;20128;-69
2022/03/23 03:04:57;;;;;;;70.65;32.72;;;5.00;99.90;;;;;;5072820;28;20182;-69
2022/03/23 03:07:23;;;;;;;74.78;34.05;;;5.00;99.90;;;;;;5073561;28;20550;-68
2022/03/23 03:09:49;;;;;;;65.32;30.77;;;5.00;99.90;;;;;;5057078;28;20119;-70
2022/03/23 03:12:16;;;;;;;68.30;32.90;;;5.00;99.90;;;;;;5069924;28;20129;-69
2022/03/23 03:14:42;;;;;;;69.70;32.17;;;5.00;99.90;;;;;;5053285;28;20507;-72
2022/03/23 03:17:08;;;;;;;72.40;35.63;;;5.00;99.90;;;;;;5089601;28;20135;-69
2022/03/23 03:19:37;;;;;;;66.72;31.65;;;4.90;99.90;;;;;;5082937;28;20036;-69
2022/03/23 03:22:05;;;;;;;58.05;28.83;;;5.80;99.90;;;;;;5068539;28;20049;-69
2022/03/23 03:24:30;;;;;;;68.30;31.90;;;4.90;99.90;;;;;;5065948;28;20052;-69
2022/03/23 03:26:57;;;;;;;66.25;31.83;;;4.80;99.90;;;;;;5079711;28;20052;-70
2022/03/23 03:29:23;;;;;;;62.13;30.90;;;4.80;99.90;;;;;;5056683;28;20080;-69
2022/03/23 03:31:49;;;;;;;65.05;32.72;;;4.80;99.90;;;;;;5089350;28;20115;-68
2022/03/23 03:34:16;;;;;;;78.50;35.83;;;4.80;99.90;;;;;;5072670;28;20044;-68
2022/03/23 03:36:42;;;;;;;68.22;32.60;;;4.80;99.90;;;;;;5054126;28;20084;-69
2022/03/23 03:39:08;;;;;;;70.32;33.70;;;4.80;99.90;;;;;;5093551;28;20082;-68
2022/03/23 03:41:35;;;;;;;78.97;35.72;;;4.80;99.90;;;;;;5076464;28;20541;-68
2022/03/23 03:44:01;;;;;;;68.43;33.00;;;4.80;99.90;;;;;;5076384;28;20051;-70
2022/03/23 03:46:27;;;;;;;70.15;34.55;;;4.70;99.90;;;;;;5062406;28;20126;-69
2022/03/23 03:48:53;;;;;;;67.45;32.45;;;4.70;99.90;;;;;;5091154;28;20446;-68
2022/03/23 03:51:20;;;;;;;62.05;31.23;;;4.70;99.90;;;;;;5072821;28;20071;-68
2022/03/23 03:53:45;;;;;;;62.53;30.08;;;4.70;99.90;;;;;;5051616;28;20055;-69
2022/03/23 03:56:12;;;;;;;64.65;31.35;;;4.70;99.90;;;;;;5082956;28;20472;-69
2022/03/23 03:58:38;;;;;;;62.85;30.67;;;4.60;99.90;;;;;;5077840;28;20044;-69
2022/03/23 04:01:05;;;;;;;64.82;32.08;;;4.60;99.90;;;;;;5047141;28;20086;-69
2022/03/23 04:03:31;;;;;;;60.17;29.92;;;4.60;99.90;;;;;;5054472;28;20051;-69
2022/03/23 04:05:57;;;;;;;63.47;31.38;;;4.60;99.90;;;;;;5092837;28;20040;-68
2022/03/23 04:08:23;;;;;;;65.22;32.58;;;4.60;99.90;;;;;;5059891;28;20048;-68
2022/03/23 04:10:49;;;;;;;62.63;31.48;;;4.60;99.90;;;;;;5079771;28;20054;-71
2022/03/23 04:13:15;;;;;;;63.25;30.65;;;4.50;99.90;;;;;;5073097;28;20460;-69
2022/03/23 04:15:41;;;;;;;67.55;32.20;;;4.50;99.90;;;;;;5096872;28;20049;-69
2022/03/23 04:18:08;;;;;;;66.75;31.73;;;4.40;99.90;;;;;;5058536;28;20083;-69
2022/03/23 04:20:34;;;;;;;71.35;34.03;;;4.40;99.90;;;;;;5036132;28;20081;-68
2022/03/23 04:23:00;;;;;;;54.67;27.95;;;4.40;99.90;;;;;;5075152;28;20043;-70
2022/03/23 04:25:26;;;;;;;56.58;28.80;;;4.40;99.90;;;;;;5076648;28;20468;-69
2022/03/23 04:27:57;;;;;;;69.38;33.63;;;4.30;99.90;;;;;;5080492;28;20061;-69
2022/03/23 04:30:24;;;;;;;73.25;34.15;;;4.30;99.90;;;;;;5077788;28;20134;-69
2022/03/23 04:32:51;;;;;;;59.90;28.00;;;4.60;99.90;;;;;;5057937;28;20042;-69
2022/03/23 04:35:18;;;;;;;70.45;32.80;;;4.30;99.90;;;;;;5075867;28;20040;-69
2022/03/23 04:37:45;;;;;;;59.38;30.20;;;4.70;99.90;;;;;;5041023;28;20102;-69
2022/03/23 04:40:14;;;;;;;62.80;29.95;;;4.20;99.90;;;;;;5067010;28;20131;-69
2022/03/23 04:42:40;;;;;;;83.03;34.63;;;4.20;99.90;;;;;;5069174;28;20476;-70
2022/03/23 04:45:08;;;;;;;71.43;32.47;;;4.20;99.90;;;;;;5059366;28;20110;-69
2022/03/23 04:47:34;;;;;;;69.38;33.22;;;4.20;99.90;;;;;;5089494;28;20491;-69
2022/03/23 04:50:00;;;;;;;70.30;33.55;;;4.20;99.90;;;;;;5074104;28;20067;-69
2022/03/23 04:52:27;;;;;;;84.60;37.05;;;4.20;99.90;;;;;;5091813;28;20085;-70
2022/03/23 04:54:56;;;;;;;72.22;33.55;;;4.20;99.90;;;;;;5079727;28;20047;-69
2022/03/23 04:57:26;;;;;;;72.30;33.30;;;4.20;99.90;;;;;;5091090;28;20071;-69
2022/03/23 04:59:53;;;;;;;66.90;32.85;;;4.20;99.90;;;;;;5069627;28;20048;-69
2022/03/23 05:02:18;;;;;;;85.45;37.40;;;4.20;99.90;;;;;;5073811;28;20105;-70
2022/03/23 05:04:45;;;;;;;73.70;33.92;;;4.20;99.90;;;;;;5092317;28;20036;-69
2022/03/23 05:07:12;;;;;;;74.28;33.83;;;4.20;99.90;;;;;;5091914;28;20040;-70
2022/03/23 05:09:38;;;;;;;79.13;35.40;;;4.20;99.90;;;;;;5074857;28;20040;-69
2022/03/23 05:12:04;;;;;;;80.70;36.90;;;4.20;99.90;;;;;;5037065;28;20044;-69
2022/03/23 05:14:30;;;;;;;69.57;32.95;;;4.10;99.90;;;;;;5068887;28;20068;-69
2022/03/23 05:16:56;;;;;;;79.75;37.33;;;4.20;99.90;;;;;;5055247;28;20113;-71
2022/03/23 05:19:22;;;;;;;82.05;35.97;;;4.20;99.90;;;;;;5065990;28;20079;-69
2022/03/23 05:21:48;;;;;;;78.35;36.47;;;4.60;99.90;;;;;;5079317;28;20063;-70
2022/03/23 05:24:14;;;;;;;71.15;33.97;;;4.20;99.90;;;;;;5064897;28;20479;-69
2022/03/23 05:26:40;;;;;;;71.95;34.03;;;4.20;99.90;;;;;;5073950;28;20040;-69
2022/03/23 05:29:06;;;;;;;74.43;33.83;;;4.20;99.90;;;;;;5097184;28;20090;-70
2022/03/23 05:31:32;;;;;;;63.55;31.08;;;4.60;99.90;;;;;;5066609;28;20579;-69
2022/03/23 05:33:58;;;;;;;61.20;29.75;;;4.20;99.90;;;;;;5074872;28;20071;-69
2022/03/23 05:36:24;;;;;;;72.13;33.08;;;4.90;99.90;;;;;;5074998;28;20051;-69
2022/03/23 05:38:50;;;;;;;84.30;37.22;;;4.20;99.90;;;;;;5074603;28;20510;-69
2022/03/23 05:41:15;;;;;;;72.70;34.95;;;4.30;99.90;;;;;;5091042;28;20044;-70
2022/03/23 05:43:41;;;;;;;67.90;31.88;;;4.20;99.90;;;;;;5072292;28;20041;-69
2022/03/23 05:46:07;;;;;;;63.15;30.48;;;4.30;99.90;;;;;;5089482;28;20049;-71
2022/03/23 05:48:33;;;;;;;47.13;24.77;;;4.30;99.90;;;;;;5048960;28;20097;-69
2022/03/23 05:50:59;;;;;;;49.95;25.75;;;4.20;99.90;;;;;;5087979;28;20108;-69
2022/03/23 05:53:25;;;;;;;66.20;32.47;;;4.30;99.90;;;;;;5054915;28;20986;-71
2022/03/23 05:55:51;;;;;;;82.20;35.13;;;4.40;99.90;;;;;;5089993;28;20035;-69
2022/03/23 05:58:17;;;;;;;88.35;41.08;;;4.40;99.90;;;;;;5061622;28;20043;-69
2022/03/23 06:00:43;;;;;;;76.53;36.90;;;4.50;99.90;;;;;;5086963;28;20076;-71
2022/03/23 06:03:10;;;;;;;77.30;35.55;;;4.60;99.90;;;;;;5057140;28;20041;-69
2022/03/23 06:05:36;;;;;;;69.55;33.20;;;4.60;99.90;;;;;;5091535;28;20040;-69
2022/03/23 06:08:03;;;;;;;50.38;26.10;;;4.60;99.90;;;;;;5090443;28;20058;-70
2022/03/23 06:10:29;;;;;;;47.60;26.13;;;4.60;99.90;;;;;;5074330;28;20051;-69
2022/03/23 06:12:55;;;;;;;63.38;30.90;;;4.50;99.90;;;;;;5058052;28;20052;-69
2022/03/23 06:15:22;;;;;;;70.40;34.58;;;4.60;99.90;;;;;;5083316;28;20399;-69
2022/03/23 06:17:47;;;;;;;69.38;32.58;;;4.60;99.90;;;;;;5078552;28;20040;-70
2022/03/23 06:20:14;;;;;;;76.47;37.00;;;4.60;99.90;;;;;;5091061;28;20434;-71
2022/03/23 06:22:40;;;;;;;80.32;37.70;;;4.70;99.90;;;;;;5072070;28;20100;-69
2022/03/23 06:25:07;;;;;;;81.32;37.08;;;4.80;99.90;;;;;;5073731;28;20048;-69
2022/03/23 06:27:34;;;;;;;71.38;35.45;;;4.90;99.90;;;;;;5090808;28;20052;-69
2022/03/23 06:30:01;;;;;;;74.43;35.63;;;5.00;99.90;;;;;;5091216;28;20075;-70
2022/03/23 06:32:27;;;;;;;60.92;29.20;;;5.10;99.90;;;;;;5072668;28;20052;-69
2022/03/23 06:34:53;;;;;;;78.13;37.72;;;5.20;99.90;;;;;;5054405;28;20039;-70
2022/03/23 06:37:19;;;;;;;75.75;37.10;;;5.20;99.90;;;;;;5056944;28;20139;-69
2022/03/23 06:39:45;;;;;;;75.90;36.58;;;5.20;99.90;;;;;;5091079;28;20043;-70
2022/03/23 06:42:10;;;;;;;71.88;34.60;;;5.40;99.90;;;;;;5098539;28;20052;-70
2022/03/23 06:44:38;;;;;;;82.80;38.33;;;5.50;99.90;;;;;;5092982;28;20040;-70
2022/03/23 06:47:04;;;;;;;72.68;37.00;;;5.70;99.90;;;;;;5072430;28;20079;-70
2022/03/23 06:49:30;;;;;;;79.38;39.30;;;5.90;99.90;;;;;;5070930;28;20480;-70
2022/03/23 06:51:56;;;;;;;77.10;38.63;;;6.00;99.90;;;;;;5064313;28;20048;-69
2022/03/23 06:54:22;;;;;;;67.57;35.33;;;6.20;99.90;;;;;;5056875;28;20036;-70
2022/03/23 06:56:51;;;;;;;62.65;32.30;;;6.40;99.90;;;;;;5073538;28;20170;-70
2022/03/23 06:59:18;;;;;;;59.75;32.00;;;6.60;99.90;;;;;;5086337;28;20044;-70
2022/03/23 07:01:44;;;;;;;61.80;33.08;;;6.80;99.90;;;;;;5056470;28;20048;-69
2022/03/23 07:04:10;;;;;;;54.58;31.70;;;7.00;99.90;;;;;;5056194;28;20697;-70
2022/03/23 07:06:36;;;;;;;59.63;29.98;;;7.20;99.90;;;;;;5054054;28;20427;-70
2022/03/23 07:11:46;;;;;;;53.10;28.33;;;7.60;99.90;;;;;;5081606;28;20403;-71
2022/03/23 07:14:12;;;;;;;55.53;30.38;;;7.90;99.90;;;;;;5074157;28;20033;-72
2022/03/23 07:16:39;;;;;;;52.67;28.38;;;8.00;99.90;;;;;;5069648;28;20422;-70
2022/03/23 07:19:05;;;;;;;50.05;28.48;;;8.20;99.90;;;;;;5060370;28;20097;-70
2022/03/23 07:21:32;;;;;;;52.60;28.80;;;8.30;99.90;;;;;;5077347;28;20036;-70
2022/03/23 07:23:58;;;;;;;51.60;27.65;;;8.50;99.90;;;;;;5093374;28;20044;-70
2022/03/23 07:26:24;;;;;;;51.20;28.55;;;8.70;99.90;;;;;;5058614;28;20496;-69
2022/03/23 07:28:50;;;;;;;45.97;26.20;;;8.80;99.90;;;;;;5073438;28;20044;-68
2022/03/23 07:31:16;;;;;;;53.78;28.10;;;9.00;99.90;;;;;;5059119;28;20044;-68
2022/03/23 07:33:42;;;;;;;50.03;28.35;;;9.10;99.90;;;;;;5089153;28;20044;-70
2022/03/23 07:36:12;;;;;;;51.75;28.13;;;9.30;99.90;;;;;;5097339;28;20036;-69
2022/03/23 07:38:39;;;;;;;49.20;26.60;;;9.40;99.90;;;;;;5036698;28;20051;-69
2022/03/23 07:41:05;;;;;;;47.10;27.23;;;9.60;99.90;;;;;;5094622;28;20426;-69
2022/03/23 07:43:31;;;;;;;48.10;27.77;;;9.70;99.90;;;;;;5076902;28;20508;-69
2022/03/23 07:45:57;;;;;;;49.25;26.80;;;9.80;99.90;;;;;;5077260;28;20480;-68
2022/03/23 07:48:24;;;;;;;47.05;26.90;;;10.00;99.90;;;;;;5063062;28;20041;-69
2022/03/23 07:50:53;;;;;;;48.97;28.77;;;10.10;99.90;;;;;;5064434;28;20079;-69
2022/03/23 07:53:19;;;;;;;45.97;27.98;;;10.20;99.90;;;;;;5074934;28;20047;-69
2022/03/23 07:55:45;;;;;;;49.53;28.10;;;10.40;99.90;;;;;;5057336;28;20040;-69
2022/03/23 07:58:12;;;;;;;47.05;26.95;;;10.50;99.90;;;;;;5104367;28;20066;-70
2022/03/23 08:00:41;;;;;;;47.28;26.40;;;10.60;99.90;;;;;;5084322;28;20063;-70
2022/03/23 08:03:07;;;;;;;42.80;26.13;;;10.70;99.90;;;;;;5059307;28;20063;-71
2022/03/23 08:05:33;;;;;;;47.30;26.48;;;10.90;99.90;;;;;;5056708;28;20047;-70
2022/03/23 08:07:59;;;;;;;43.33;25.98;;;11.00;99.90;;;;;;5097616;28;20515;-70
2022/03/23 08:10:25;;;;;;;45.47;27.02;;;11.20;99.90;;;;;;5055197;28;20100;-73
2022/03/23 08:12:51;;;;;;;46.08;26.77;;;11.30;99.90;;;;;;5085180;28;20091;-70
2022/03/23 08:15:17;;;;;;;45.05;26.20;;;11.40;99.90;;;;;;5060102;28;20089;-70
2022/03/23 08:17:43;;;;;;;46.72;26.95;;;11.60;99.90;;;;;;5093639;28;20044;-72
2022/03/23 08:22:56;;;;;;;44.60;26.13;;;11.80;99.90;;;;;;5076132;28;20079;-70
2022/03/23 08:25:22;;;;;;;44.75;26.02;;;11.90;99.90;;;;;;5074118;28;20123;-70
2022/03/23 08:27:48;;;;;;;38.70;23.73;;;12.10;99.90;;;;;;5054811;28;20128;-69
2022/03/23 08:30:14;;;;;;;42.03;25.58;;;12.20;99.90;;;;;;5054289;28;20043;-70
2022/03/23 08:32:40;;;;;;;43.08;26.10;;;12.30;99.90;;;;;;5071138;28;20075;-70
2022/03/23 08:35:07;;;;;;;43.25;25.58;;;12.40;99.90;;;;;;5072076;28;20047;-70
2022/03/23 08:37:33;;;;;;;39.97;25.95;;;12.50;99.90;;;;;;5072587;28;20162;-70
2022/03/23 08:39:59;;;;;;;43.95;26.13;;;12.70;99.90;;;;;;5039946;28;20120;-68
2022/03/23 08:42:25;;;;;;;41.95;26.52;;;12.80;99.90;;;;;;5052551;28;20040;-70
2022/03/23 08:44:52;;;;;;;43.22;24.85;;;12.90;99.90;;;;;;5062979;28;20036;-69
2022/03/23 08:47:18;;;;;;;38.05;26.25;;;13.00;99.90;;;;;;5091112;28;20032;-68
2022/03/23 08:49:44;;;;;;;38.72;24.85;;;13.10;99.90;;;;;;5072913;28;20413;-68
2022/03/23 08:52:10;;;;;;;38.50;25.40;;;13.20;99.90;;;;;;5052510;28;20381;-68
2022/03/23 08:54:36;;;;;;;42.25;25.52;;;13.30;99.90;;;;;;5079163;28;20048;-70
2022/03/23 08:57:02;;;;;;;41.13;25.38;;;13.50;99.90;;;;;;5072380;28;20040;-69
2022/03/23 08:59:28;;;;;;;42.17;25.50;;;13.60;99.90;;;;;;5055653;28;20426;-68
2022/03/23 09:01:54;;;;;;;41.08;25.10;;;13.80;99.90;;;;;;5072076;28;20040;-68
2022/03/23 09:04:20;;;;;;;39.00;25.05;;;13.90;99.90;;;;;;5075123;28;20044;-68
2022/03/23 09:06:46;;;;;;;37.80;23.98;;;14.20;99.90;;;;;;5058605;28;20105;-68
2022/03/23 09:09:12;;;;;;;40.33;24.65;;;14.30;99.90;;;;;;5087329;28;20043;-70
2022/03/23 09:11:38;;;;;;;37.47;23.98;;;14.30;99.90;;;;;;5097038;28;20070;-68
2022/03/23 09:14:04;;;;;;;39.60;24.35;;;14.50;99.90;;;;;;5052892;28;20507;-68
2022/03/23 09:16:30;;;;;;;39.00;24.92;;;14.70;99.90;;;;;;5071167;28;20045;-69
2022/03/23 09:18:56;;;;;;;36.05;23.73;;;14.90;99.90;;;;;;5056677;28;20051;-68
2022/03/23 09:21:23;;;;;;;40.15;24.15;;;15.00;99.50;;;;;;5070769;28;20045;-69
2022/03/23 09:23:50;;;;;;;34.05;22.80;;;15.20;90.70;;;;;;5058848;28;20044;-68
2022/03/23 09:26:16;;;;;;;34.28;22.58;;;15.30;86.40;;;;;;5071230;28;20040;-68
2022/03/23 09:28:41;;;;;;;30.40;22.42;;;15.40;83.60;;;;;;5092616;28;20063;-68
2022/03/23 09:31:07;;;;;;;33.10;22.77;;;15.60;81.70;;;;;;5052412;28;20054;-68
2022/03/23 09:33:34;;;;;;;32.97;22.40;;;15.70;79.70;;;;;;5082631;28;20086;-69
2022/03/23 09:36:00;;;;;;;38.78;22.48;;;15.80;78.30;;;;;;5070374;28;20040;-69
2022/03/23 09:38:26;;;;;;;32.53;22.88;;;15.90;76.50;;;;;;5093833;28;20043;-68
2022/03/23 09:40:52;;;;;;;31.92;22.60;;;16.10;75.80;;;;;;5074222;28;20480;-67
2022/03/23 09:43:23;;;;;;;32.95;22.83;;;16.20;75.60;;;;;;5074255;28;20044;-67
2022/03/23 09:45:51;;;;;;;34.13;22.92;;;16.30;73.90;;;;;;5074541;28;20048;-67
2022/03/23 09:48:26;;;;;;;31.65;22.30;;;16.40;73.10;;;;;;5048241;28;20041;-69
2022/03/23 09:50:54;;;;;;;31.52;22.15;;;16.50;70.80;;;;;;5091379;28;20591;-68
2022/03/23 09:53:23;;;;;;;35.75;22.45;;;16.60;71.20;;;;;;5052930;28;20051;-67
2022/03/23 09:55:51;;;;;;;34.65;22.20;;;16.70;70.20;;;;;;5086590;28;20098;-69
2022/03/23 09:58:17;;;;;;;34.95;22.67;;;16.70;69.70;;;;;;5063946;28;20497;-68
2022/03/23 10:00:44;;;;;;;33.05;21.67;;;16.80;69.10;;;;;;5091445;28;20044;-69
2022/03/23 10:03:12;;;;;;;35.83;21.90;;;16.90;68.00;;;;;;5074778;28;20036;-67
2022/03/23 10:05:57;;;;;;;29.35;21.65;;;17.00;66.80;;;;;;5074987;28;20501;-68
2022/03/23 10:09:00;;;;;;;28.17;21.38;;;17.10;66.50;;;;;;5071929;28;20044;-67
2022/03/23 10:11:38;;;;;;;32.35;20.73;;;17.20;59.00;;;;;;5087157;28;20040;-68
2022/03/23 10:14:22;;;;;;;30.08;21.02;;;17.30;63.10;;;;;;5090997;28;20074;-68
2022/03/23 10:17:25;;;;;;;28.05;20.27;;;17.50;63.20;;;;;;5074439;28;20082;-68
2022/03/23 10:19:52;;;;;;;26.85;19.35;;;17.50;57.70;;;;;;5073715;28;20055;-68
2022/03/23 10:22:17;;;;;;;33.28;20.45;;;17.60;59.20;;;;;;5090868;28;20040;-68
2022/03/23 10:24:43;;;;;;;26.67;20.42;;;17.70;59.20;;;;;;5060220;28;20044;-68
2022/03/23 10:27:17;;;;;;;31.73;20.05;;;17.70;58.30;;;;;;5092619;28;20127;-68
2022/03/23 10:29:52;;;;;;;29.95;21.55;;;17.80;58.10;;;;;;5044815;28;20074;-68
2022/03/23 10:32:22;;;;;;;28.38;19.55;;;18.00;58.40;;;;;;5056964;28;20105;-68
2022/03/23 10:34:51;;;;;;;25.65;19.20;;;18.10;57.80;;;;;;5091209;28;20047;-69
2022/03/23 10:37:33;;;;;;;23.95;17.92;;;18.10;56.20;;;;;;5073479;28;20040;-68
2022/03/23 10:40:00;;;;;;;;;;;18.20;53.80;;;;;;5059195;28;20037;-69
2022/03/23 10:42:32;;;;;;;25.17;18.48;;;18.20;50.30;;;;;;5063489;28;19967;-70
2022/03/23 10:45:13;;;;;;;27.90;18.33;;;18.40;54.90;;;;;;5074137;28;20447;-68
2022/03/23 10:47:40;;;;;;;25.90;18.42;;;18.50;54.00;;;;;;5090899;28;20422;-68
2022/03/23 10:50:20;;;;;;;25.27;19.42;;;18.50;54.40;;;;;;5072564;28;20037;-69
2022/03/23 10:52:55;;;;;;;24.67;19.17;;;18.70;53.60;;;;;;5045734;28;20075;-68
2022/03/23 10:55:22;;;;;;;24.02;18.52;;;18.70;52.00;;;;;;5057077;28;20123;-68
2022/03/23 10:58:00;;;;;;;24.48;18.52;;;18.80;53.60;;;;;;5073977;28;20048;-68
2022/03/23 11:00:30;;;;;;;26.52;18.13;;;18.80;49.40;;;;;;5088917;28;20036;-69
2022/03/23 11:02:57;;;;;;;26.10;17.50;;;18.90;49.80;;;;;;5057317;28;20071;-69
2022/03/23 11:05:33;;;;;;;23.77;18.48;;;18.90;51.80;;;;;;5057385;28;20132;-68
2022/03/23 11:08:23;;;;;;;23.58;17.83;;;19.00;50.60;;;;;;5090865;28;20124;-68
2022/03/23 11:16:54;;;;;;;23.48;17.50;;;19.20;50.30;;;;;;5091330;28;20050;-68
2022/03/23 11:19:24;;;;;;;25.02;17.67;;;19.40;47.30;;;;;;5056609;28;20040;-69
2022/03/23 11:22:06;;;;;;;22.83;16.23;;;19.40;50.10;;;;;;5072545;28;20040;-68
2022/03/23 11:24:40;;;;;;;21.45;14.60;;;19.60;49.60;;;;;;5074009;28;20044;-68
2022/03/23 11:27:08;;;;;;;19.67;14.57;;;19.60;48.90;;;;;;5073702;28;20495;-68
2022/03/23 11:29:37;;;;;;;19.42;14.90;;;19.70;48.70;;;;;;5073758;28;20118;-68
2022/03/23 11:32:11;;;;;;;19.77;15.52;;;19.90;48.10;;;;;;5071568;28;20044;-67
2022/03/23 11:34:38;;;;;;;21.85;14.88;;;20.00;47.40;;;;;;5082285;28;20060;-71
2022/03/23 11:37:06;;;;;;;21.23;14.93;;;20.10;47.30;;;;;;5070490;28;20043;-72
2022/03/23 11:39:33;;;;;;;21.77;15.30;;;20.00;46.40;;;;;;5066783;28;20051;-70
2022/03/23 11:41:59;;;;;;;23.73;15.50;;;20.10;47.20;;;;;;5052058;28;20048;-71
2022/03/23 11:44:26;;;;;;;20.30;15.02;;;20.10;46.30;;;;;;5053775;28;20044;-71
2022/03/23 11:47:00;;;;;;;20.15;14.15;;;20.30;46.40;;;;;;5065032;28;20383;-71
2022/03/23 11:49:41;;;;;;;21.27;14.52;;;20.40;45.60;;;;;;5088501;28;20357;-71
2022/03/23 11:52:45;;;;;;;18.98;12.93;;;20.60;43.50;;;;;;5071491;28;20039;-72
2022/03/23 11:55:37;;;;;;;19.67;13.73;;;20.60;41.90;;;;;;5056943;28;20079;-71
2022/03/23 11:58:23;;;;;;;23.08;13.55;;;20.80;44.20;;;;;;5073239;28;20044;-71
2022/03/23 12:01:09;;;;;;;22.25;14.07;;;20.90;45.20;;;;;;5091804;28;20105;-71
2022/03/23 12:03:41;;;;;;;22.52;14.27;;;21.10;43.50;;;;;;5054784;28;20048;-71
2022/03/23 12:06:13;;;;;;;26.10;14.60;;;21.30;45.00;;;;;;5056720;28;20036;-71
2022/03/23 12:08:49;;;;;;;22.83;14.18;;;21.50;44.90;;;;;;5060481;28;20537;-71
2022/03/23 12:11:30;;;;;;;21.52;14.80;;;21.70;44.80;;;;;;5060792;28;20040;-71
2022/03/23 12:13:57;;;;;;;19.77;12.10;;;21.90;44.00;;;;;;5050460;28;20052;-72
2022/03/23 12:16:52;;;;;;;21.40;11.57;;;21.80;46.20;;;;;;5055721;28;20053;-71
2022/03/23 12:20:03;;;;;;;22.13;11.90;;;22.00;42.20;;;;;;5073372;28;20039;-72
2022/03/23 12:22:34;;;;;;;17.77;10.57;;;22.10;40.80;;;;;;5049919;28;20080;-72
2022/03/23 12:25:03;;;;;;;18.65;11.18;;;22.40;45.20;;;;;;5060844;28;20041;-72
2022/03/23 12:27:50;;;;;;;20.25;11.77;;;22.60;45.10;;;;;;5093367;28;20043;-72
2022/03/23 12:30:22;;;;;;;20.52;11.20;;;22.80;45.50;;;;;;5083173;28;20044;-72
2022/03/23 12:32:48;;;;;;;26.50;11.63;;;23.10;46.00;;;;;;5054147;28;20043;-72
2022/03/23 12:35:16;;;;;;;21.38;11.98;;;23.30;45.30;;;;;;5074830;28;20048;-71
2022/03/23 12:37:43;;;;;;;20.85;12.10;;;23.60;44.20;;;;;;5086899;28;20498;-72
2022/03/23 12:40:13;;;;;;;24.02;10.68;;;23.50;43.20;;;;;;5055552;28;20141;-73
2022/03/23 12:42:45;;;;;;;24.17;11.65;;;23.70;41.40;;;;;;5091821;28;20071;-72
2022/03/23 12:45:21;;;;;;;26.30;11.65;;;24.10;41.30;;;;;;5069372;28;20476;-72
2022/03/23 12:47:56;;;;;;;22.92;11.80;;;24.10;41.50;;;;;;5074405;28;20051;-72
2022/03/23 12:59:18;;;;;;;19.50;12.80;;;24.90;40.70;;;;;;5076113;28;20052;-73
2022/03/23 13:01:44;;;;;;;;;;;25.30;37.60;;;;;;5075343;28;20090;-74
2022/03/23 13:04:40;;;;;;;21.75;13.02;;;24.90;33.80;;;;;;5092156;28;19916;-73
2022/03/23 13:07:44;;;;;;;23.00;13.30;;;25.20;36.60;;;;;;5062906;28;20472;-72
2022/03/23 13:10:13;;;;;;;19.92;13.07;;;25.60;36.80;;;;;;4988276;28;20462;-73